Time;durP1;ratioP1;P1;durP2;ratioP2;P2;SDS_P1;SDS_P2;PMS_P1;PMS_P2;Temp;Humidity;BMP_temperature;BMP_pressure;BME280_temperature;BME280_humidity;BME280_pressure;Samples;Min_cycle;Max_cycle;Signal;HPM_P1;HPM_P2
2023/02/18 00:00:09;;;;;;;0.80;0.80;;;;;;;15.94;85.40;99680.66;6318609;22;20236;-82
2023/02/18 00:02:36;;;;;;;0.83;0.60;;;;;;;15.93;85.60;99679.84;6294558;22;20273;-81
2023/02/18 00:05:03;;;;;;;2.70;0.70;;;;;;;15.92;85.64;99682.78;6319815;22;20237;-81
2023/02/18 00:07:37;;;;;;;1.33;0.70;;;;;;;15.92;85.35;99670.09;6294081;22;20280;-81
2023/02/18 00:10:08;;;;;;;1.13;0.70;;;;;;;15.97;85.38;99672.03;6316032;22;20204;-82
2023/02/18 00:12:34;;;;;;;0.60;0.50;;;;;;;15.79;85.40;99684.00;6315145;22;20210;-81
2023/02/18 00:15:01;;;;;;;0.90;0.80;;;;;;;15.92;84.59;99669.28;6318980;22;20209;-81
2023/02/18 00:17:28;;;;;;;1.33;0.60;;;;;;;16.04;84.23;99673.50;6318416;22;20575;-81
2023/02/18 00:19:56;;;;;;;0.93;0.70;;;;;;;15.90;84.17;99663.34;6320284;22;20203;-81
2023/02/18 00:22:23;;;;;;;1.93;0.60;;;;;;;16.08;83.49;99657.59;6320260;22;20227;-82
2023/02/18 00:24:49;;;;;;;0.40;0.40;;;;;;;15.98;83.15;99658.28;6324200;22;20256;-83
2023/02/18 00:27:16;;;;;;;2.13;0.67;;;;;;;16.19;82.88;99668.22;6315355;22;20204;-80
2023/02/18 00:29:43;;;;;;;0.57;0.57;;;;;;;16.30;82.53;99661.03;6286446;22;20510;-81
2023/02/18 00:32:10;;;;;;;0.93;0.50;;;;;;;16.24;82.38;99678.28;6317149;22;20274;-81
2023/02/18 00:34:36;;;;;;;0.40;0.40;;;;;;;16.26;82.35;99665.34;6292622;22;20221;-81
2023/02/18 00:37:04;;;;;;;0.50;0.50;;;;;;;16.38;81.88;99676.00;6320791;22;20214;-81
2023/02/18 00:39:31;;;;;;;0.80;0.60;;;;;;;16.38;82.04;99676.78;6313838;22;20225;-86
2023/02/18 00:41:57;;;;;;;1.13;0.60;;;;;;;16.25;81.88;99671.81;6308439;22;20203;-83
2023/02/18 00:44:24;;;;;;;1.87;0.60;;;;;;;16.33;81.65;99679.44;6285383;22;20207;-81
2023/02/18 00:46:52;;;;;;;0.60;0.60;;;;;;;16.35;81.60;99687.31;6311779;22;20205;-83
2023/02/18 00:49:18;;;;;;;0.70;0.60;;;;;;;16.49;81.08;99681.22;6310822;22;20231;-83
2023/02/18 00:51:45;;;;;;;0.60;0.50;;;;;;;16.41;81.05;99673.59;6310943;22;20199;-82
2023/02/18 00:54:11;;;;;;;0.50;0.50;;;;;;;16.45;80.78;99672.00;6316343;22;20204;-81
2023/02/18 00:56:38;;;;;;;0.80;0.60;;;;;;;16.46;80.49;99689.88;6288501;22;20515;-81
2023/02/18 00:59:05;;;;;;;1.23;0.50;;;;;;;16.51;80.50;99699.91;6298247;22;20243;-82
2023/02/18 01:01:32;;;;;;;0.60;0.60;;;;;;;16.44;80.62;99700.13;6282899;22;20220;-81
2023/02/18 01:03:59;;;;;;;0.60;0.50;;;;;;;16.58;80.27;99685.13;6295142;22;20211;-82
2023/02/18 01:06:25;;;;;;;0.40;0.40;;;;;;;16.50;80.64;99698.28;6322180;22;20199;-83
2023/02/18 01:08:53;;;;;;;1.43;0.60;;;;;;;16.52;80.97;99685.28;6294818;22;20209;-82
2023/02/18 01:23:32;;;;;;;3.97;0.70;;;;;;;16.52;81.23;99693.41;6317101;22;20230;-82
2023/02/18 01:25:58;;;;;;;1.00;0.60;;;;;;;16.55;81.20;99692.91;6316085;22;20286;-83
2023/02/18 01:28:30;;;;;;;0.90;0.60;;;;;;;16.63;81.11;99700.59;6318894;22;20208;-83
2023/02/18 01:31:07;;;;;;;1.30;0.70;;;;;;;16.55;81.42;99679.41;6332120;22;20181;-82
2023/02/18 01:33:34;;;;;;;0.80;0.63;;;;;;;16.57;81.57;99685.34;6317120;22;20290;-83
2023/02/18 01:36:01;;;;;;;1.23;0.70;;;;;;;16.48;81.58;99678.78;6326309;22;20214;-78
2023/02/18 01:38:28;;;;;;;0.93;0.53;;;;;;;16.39;81.93;99666.78;6335145;22;20192;-81
2023/02/18 01:40:59;;;;;;;0.80;0.60;;;;;;;16.52;81.84;99675.28;6324914;22;20199;-83
2023/02/18 01:43:27;;;;;;;0.83;0.60;;;;;;;16.45;81.99;99658.47;6327702;22;20202;-82
2023/02/18 01:48:59;;;;;;;1.20;0.90;;;;;;;16.44;82.12;99651.44;6281914;22;20215;-82
2023/02/18 01:51:30;;;;;;;1.10;0.70;;;;;;;16.40;82.41;99663.03;6232673;22;20211;-82
2023/02/18 01:54:14;;;;;;;1.00;0.70;;;;;;;16.45;82.14;99663.06;6282104;22;20212;-80
2023/02/18 01:56:56;;;;;;;1.03;0.90;;;;;;;16.41;82.35;99657.38;6255885;22;20222;-81
2023/02/18 01:59:29;;;;;;;1.17;0.80;;;;;;;16.40;82.54;99665.72;6256466;22;20212;-80
2023/02/18 02:01:56;;;;;;;1.60;0.90;;;;;;;16.22;82.56;99680.44;6254922;22;20649;-82
2023/02/18 02:04:23;;;;;;;1.00;0.80;;;;;;;16.24;82.76;99673.69;6250196;22;20204;-80
2023/02/18 02:06:50;;;;;;;1.57;0.90;;;;;;;16.30;82.39;99672.66;6253169;22;20608;-81
2023/02/18 02:09:19;;;;;;;2.07;0.93;;;;;;;16.25;82.50;99669.91;6252001;22;20293;-81
2023/02/18 02:11:56;;;;;;;1.10;0.90;;;;;;;16.33;82.46;99676.75;6227594;22;20261;-80
2023/02/18 02:15:00;;;;;;;1.27;1.17;;;;;;;16.17;83.04;99681.19;6279368;22;20234;-80
2023/02/18 02:17:45;;;;;;;1.00;1.00;;;;;;;16.16;83.18;99670.63;6253049;22;20260;-81
2023/02/18 02:20:49;;;;;;;1.23;1.00;;;;;;;16.28;82.81;99669.41;6251987;22;20293;-82
2023/02/18 02:24:03;;;;;;;2.97;1.17;;;;;;;16.18;83.23;99677.44;6252786;22;20654;-81
2023/02/18 02:26:33;;;;;;;1.20;1.03;;;;;;;16.24;83.22;99675.56;6101915;23;20305;-81
2023/02/18 02:29:09;;;;;;;1.87;1.13;;;;;;;16.10;83.36;99682.44;6266212;22;20215;-80
2023/02/18 02:31:57;;;;;;;1.47;1.00;;;;;;;16.07;83.58;99669.47;6284057;22;20209;-82
2023/02/18 02:34:29;;;;;;;1.97;1.10;;;;;;;16.23;83.40;99687.47;6272425;22;20226;-82
2023/02/18 02:37:24;;;;;;;0.87;0.80;;;;;;;16.14;83.45;99680.91;6299420;22;20208;-82
2023/02/18 02:39:50;;;;;;;1.57;1.20;;;;;;;15.91;84.43;99692.78;6270969;22;20241;-83
2023/02/18 02:42:29;;;;;;;1.00;0.90;;;;;;;16.06;84.04;99682.16;6270838;22;20266;-83
2023/02/18 02:45:09;;;;;;;2.57;1.00;;;;;;;16.10;84.14;99671.63;6247373;22;20210;-82
2023/02/18 02:48:22;;;;;;;1.33;1.17;;;;;;;16.08;84.51;99673.78;6256209;22;20213;-82
2023/02/18 02:50:56;;;;;;;1.50;1.10;;;;;;;16.02;84.51;99683.72;6176459;23;20214;-83
2023/02/18 02:53:26;;;;;;;1.63;0.97;;;;;;;16.05;84.58;99685.91;6174051;23;20208;-82
2023/02/18 02:55:54;;;;;;;2.17;1.20;;;;;;;15.87;84.73;99675.44;6229525;22;20259;-81
2023/02/18 02:58:23;;;;;;;2.20;1.17;;;;;;;15.89;84.93;99692.22;6271245;22;20525;-82
2023/02/18 03:01:14;;;;;;;1.63;1.20;;;;;;;15.84;85.07;99693.00;6270221;22;20209;-82
2023/02/18 03:03:44;;;;;;;1.47;1.10;;;;;;;15.73;85.58;99696.63;6270767;22;20232;-81
2023/02/18 03:06:40;;;;;;;1.37;1.20;;;;;;;15.89;85.22;99688.72;6272458;22;20262;-81
2023/02/18 03:09:25;;;;;;;1.67;1.10;;;;;;;15.94;85.09;99670.69;6247303;22;20208;-82
2023/02/18 03:12:06;;;;;;;2.30;1.03;;;;;;;15.92;85.08;99672.81;6296795;22;20259;-83
2023/02/18 03:14:44;;;;;;;1.10;1.00;;;;;;;15.95;84.88;99677.72;6297557;22;20225;-82
2023/02/18 03:17:40;;;;;;;1.03;0.90;;;;;;;15.86;85.11;99671.13;6298028;22;20213;-81
2023/02/18 03:20:18;;;;;;;1.67;0.90;;;;;;;15.77;85.33;99669.94;6279478;22;20212;-83
2023/02/18 03:22:48;;;;;;;1.07;0.90;;;;;;;15.73;85.71;99682.31;6306448;22;20199;-82
2023/02/18 03:25:16;;;;;;;1.17;0.90;;;;;;;15.80;85.14;99666.72;6255955;22;20221;-82
2023/02/18 03:27:49;;;;;;;1.63;0.90;;;;;;;15.78;85.39;99676.97;6307231;22;20658;-82
2023/02/18 03:33:09;;;;;;;1.13;0.80;;;;;;;15.72;85.46;99667.97;6304894;22;20275;-82
2023/02/18 03:35:36;;;;;;;0.87;0.87;;;;;;;15.71;85.60;99679.88;6243313;22;20221;-83
2023/02/18 03:38:17;;;;;;;1.27;0.90;;;;;;;15.76;84.82;99674.53;6248007;22;20220;-82
2023/02/18 03:40:45;;;;;;;2.50;0.87;;;;;;;15.73;84.82;99664.22;6271000;22;20210;-82
2023/02/18 03:43:13;;;;;;;0.83;0.83;;;;;;;15.65;84.67;99661.97;6247238;22;20266;-83
2023/02/18 03:45:40;;;;;;;1.30;0.80;;;;;;;15.64;84.82;99654.91;6299323;22;20206;-83
2023/02/18 04:34:57;;;;;;;1.07;0.50;;;;;;;15.32;85.44;99678.22;6265339;22;20206;-80
2023/02/18 04:37:23;;;;;;;0.93;0.70;;;;;;;15.46;85.02;99671.41;6281332;22;20213;-80
2023/02/18 04:39:50;;;;;;;1.10;0.70;;;;;;;15.39;84.99;99690.50;6255330;22;20206;-81
2023/02/18 04:42:17;;;;;;;0.77;0.77;;;;;;;15.57;84.88;99685.91;6281272;22;20217;-80
2023/02/18 04:44:43;;;;;;;2.13;0.80;;;;;;;15.52;84.95;99680.44;6283066;22;20206;-81
2023/02/18 04:47:14;;;;;;;1.10;0.70;;;;;;;15.56;84.77;99676.97;6289384;22;20211;-81
2023/02/18 04:49:41;;;;;;;1.23;0.80;;;;;;;15.35;85.34;99672.34;6265349;22;20658;-81
2023/02/18 04:52:10;;;;;;;1.43;0.70;;;;;;;15.41;84.99;99671.34;6260484;22;20212;-81
2023/02/18 04:54:37;;;;;;;1.33;0.83;;;;;;;15.55;84.72;99683.44;6287043;22;20208;-81
2023/02/18 04:57:03;;;;;;;1.83;0.70;;;;;;;15.41;84.93;99685.66;6287666;22;20594;-81
2023/02/18 04:59:30;;;;;;;0.97;0.87;;;;;;;15.40;84.80;99659.72;6287009;22;20285;-80
2023/02/18 05:01:56;;;;;;;0.80;0.80;;;;;;;15.44;84.88;99668.16;6286344;22;20237;-81
2023/02/18 05:04:23;;;;;;;0.70;0.60;;;;;;;15.41;85.00;99679.44;6287430;22;20194;-81
2023/02/18 05:06:50;;;;;;;1.13;0.70;;;;;;;15.47;84.83;99674.91;6288959;22;20290;-81
2023/02/18 05:09:16;;;;;;;0.70;0.70;;;;;;;15.41;84.89;99682.94;6289594;22;20602;-81
2023/02/18 05:11:46;;;;;;;0.80;0.70;;;;;;;15.44;84.85;99687.84;6290199;22;20207;-81
2023/02/18 05:14:13;;;;;;;1.20;0.80;;;;;;;15.30;85.00;99693.88;6290887;22;20213;-80
2023/02/18 05:16:40;;;;;;;1.30;0.80;;;;;;;15.36;84.89;99687.47;6293690;22;20254;-82
2023/02/18 05:19:06;;;;;;;0.83;0.67;;;;;;;15.48;84.74;99692.75;6296085;22;20253;-81
2023/02/18 05:21:34;;;;;;;0.83;0.67;;;;;;;15.50;84.70;99696.84;6295594;22;20205;-82
2023/02/18 05:24:01;;;;;;;1.27;0.70;;;;;;;15.55;84.44;99701.50;6301742;22;20244;-77
2023/02/18 05:26:27;;;;;;;1.77;0.60;;;;;;;15.48;84.50;99682.78;6287089;22;20211;-81
2023/02/18 05:28:54;;;;;;;0.90;0.70;;;;;;;15.62;84.40;99697.59;6288628;22;20209;-81
2023/02/18 05:31:20;;;;;;;0.80;0.50;;;;;;;15.59;84.34;99714.25;6297682;22;20185;-82
2023/02/18 05:33:47;;;;;;;0.70;0.60;;;;;;;15.40;85.14;99707.50;6286908;22;20224;-81
2023/02/18 05:36:14;;;;;;;0.70;0.50;;;;;;;15.46;85.06;99720.00;6284337;22;20203;-81
2023/02/18 05:38:40;;;;;;;1.03;0.50;;;;;;;15.42;85.15;99729.66;6291167;22;20233;-81
2023/02/18 05:41:07;;;;;;;0.80;0.67;;;;;;;15.52;85.19;99710.13;6293283;22;20210;-81
2023/02/18 05:46:19;;;;;;;0.63;0.50;;;;;;;15.57;85.20;99723.69;6295019;22;20467;-81
2023/02/18 05:48:46;;;;;;;0.50;0.50;;;;;;;15.41;85.74;99742.34;6295304;22;20627;-81
2023/02/18 05:51:13;;;;;;;1.20;0.60;;;;;;;15.44;85.98;99720.25;6268519;22;20207;-82
2023/02/18 05:53:39;;;;;;;1.33;0.60;;;;;;;15.42;86.77;99735.06;6295582;22;20205;-81
2023/02/18 05:56:06;;;;;;;0.80;0.70;;;;;;;15.42;87.13;99738.59;6293686;22;20257;-81
2023/02/18 05:58:33;;;;;;;0.67;0.67;;;;;;;15.42;87.22;99733.19;6297668;22;20206;-82
2023/02/18 06:01:00;;;;;;;0.70;0.70;;;;;;;15.48;87.25;99725.16;6300091;22;20206;-81
2023/02/18 06:03:26;;;;;;;1.53;0.83;;;;;;;15.49;87.53;99734.91;6275527;22;20202;-82
2023/02/18 06:05:53;;;;;;;0.53;0.50;;;;;;;15.36;87.77;99742.28;6295255;22;20206;-82
2023/02/18 06:08:20;;;;;;;0.60;0.60;;;;;;;15.37;88.18;99733.13;6268154;22;20243;-81
2023/02/18 06:10:47;;;;;;;0.60;0.60;;;;;;;15.28;88.21;99752.69;6294212;22;20234;-82
2023/02/18 06:13:13;;;;;;;0.57;0.50;;;;;;;15.42;87.89;99741.28;6292410;22;20203;-82
2023/02/18 06:15:40;;;;;;;0.50;0.50;;;;;;;15.33;88.61;99741.97;6295226;22;20550;-82
2023/02/18 06:18:06;;;;;;;1.23;0.60;;;;;;;15.34;88.70;99738.19;6293067;22;20657;-81
2023/02/18 06:20:33;;;;;;;0.50;0.50;;;;;;;15.41;88.59;99734.25;6295460;22;20204;-82
2023/02/18 06:23:00;;;;;;;0.80;0.50;;;;;;;15.27;89.19;99745.63;6269088;22;20258;-81
2023/02/18 06:25:30;;;;;;;1.10;0.67;;;;;;;15.36;89.13;99738.75;6296036;22;20206;-82
2023/02/18 06:27:56;;;;;;;0.70;0.60;;;;;;;15.26;89.38;99741.28;6295737;22;20206;-81
2023/02/18 06:30:23;;;;;;;0.77;0.60;;;;;;;15.14;90.07;99727.91;6294043;22;20204;-81
2023/02/18 06:32:50;;;;;;;1.33;0.70;;;;;;;15.14;90.48;99740.59;6292987;22;20235;-81
2023/02/18 06:35:16;;;;;;;2.23;0.60;;;;;;;15.25;90.25;99723.50;6294489;22;20220;-82
2023/02/18 06:37:44;;;;;;;1.10;0.63;;;;;;;15.29;90.32;99724.63;6294345;22;20205;-82
2023/02/18 06:40:13;;;;;;;0.70;0.63;;;;;;;15.31;90.46;99727.88;6267894;22;20263;-82
2023/02/18 06:42:39;;;;;;;0.70;0.60;;;;;;;15.27;90.46;99721.34;6296293;22;20215;-81
2023/02/18 06:45:07;;;;;;;0.73;0.60;;;;;;;15.33;90.54;99728.47;6244394;22;20201;-82
2023/02/18 06:47:33;;;;;;;0.83;0.67;;;;;;;15.33;90.94;99741.97;6295901;22;20204;-81
2023/02/18 06:50:00;;;;;;;1.53;0.70;;;;;;;15.28;90.98;99731.91;6295937;22;20292;-82
2023/02/18 06:52:29;;;;;;;1.00;0.90;;;;;;;15.34;91.26;99744.41;6267902;22;20210;-81
2023/02/18 06:54:56;;;;;;;0.70;0.70;;;;;;;15.47;90.87;99745.13;6271422;22;20232;-81
2023/02/18 06:57:22;;;;;;;0.80;0.60;;;;;;;15.43;90.66;99725.91;6298172;22;20206;-81
2023/02/18 06:59:49;;;;;;;0.80;0.80;;;;;;;15.28;90.79;99729.19;6296173;22;20209;-81
2023/02/18 07:02:23;;;;;;;0.70;0.60;;;;;;;15.34;90.61;99732.81;6273013;22;20206;-81
2023/02/18 07:04:51;;;;;;;0.57;0.57;;;;;;;15.33;90.58;99739.25;6270218;22;20218;-81
2023/02/18 07:07:18;;;;;;;2.77;0.60;;;;;;;15.29;90.71;99714.66;6294859;22;20209;-81
2023/02/18 07:09:45;;;;;;;0.80;0.80;;;;;;;15.24;90.87;99714.56;6296154;22;20221;-80
2023/02/18 07:12:11;;;;;;;2.13;1.30;;;;;;;15.14;91.36;99711.72;6293821;22;20263;-81
2023/02/18 07:14:38;;;;;;;1.13;0.70;;;;;;;15.27;91.39;99710.56;6293394;22;20602;-80
2023/02/18 07:17:05;;;;;;;0.70;0.70;;;;;;;15.28;91.05;99715.72;6294492;22;20206;-81
2023/02/18 07:19:32;;;;;;;0.80;0.80;;;;;;;15.39;90.75;99722.91;6294015;22;20613;-81
2023/02/18 07:22:00;;;;;;;0.77;0.70;;;;;;;15.33;91.16;99740.06;6293601;22;20669;-79
2023/02/18 07:24:27;;;;;;;0.80;0.80;;;;;;;15.40;91.11;99742.59;6295576;22;20267;-81
2023/02/18 07:26:54;;;;;;;0.70;0.70;;;;;;;15.21;91.15;99733.16;6294177;22;20745;-81
2023/02/18 07:29:20;;;;;;;0.93;0.70;;;;;;;15.18;91.67;99739.03;6266798;22;20256;-81
2023/02/18 07:31:47;;;;;;;0.63;0.60;;;;;;;15.14;91.50;99738.72;6293917;22;20296;-80
2023/02/18 07:34:15;;;;;;;0.87;0.73;;;;;;;15.08;92.23;99744.25;6290987;22;20229;-81
2023/02/18 07:36:42;;;;;;;1.63;0.73;;;;;;;14.95;92.81;99721.13;6268073;22;20210;-82
2023/02/18 07:39:09;;;;;;;1.20;0.70;;;;;;;14.89;93.02;99722.91;6293648;22;20212;-81
2023/02/18 07:41:35;;;;;;;1.00;0.77;;;;;;;14.96;93.30;99722.78;6298807;22;20209;-81
2023/02/18 07:44:05;;;;;;;0.70;0.70;;;;;;;15.05;92.61;99724.00;6299373;22;20194;-80
2023/02/18 07:46:33;;;;;;;0.80;0.80;;;;;;;15.02;92.76;99718.28;6269712;22;20206;-82
2023/02/18 07:49:01;;;;;;;0.60;0.60;;;;;;;15.01;93.03;99714.75;6270489;22;20198;-82
2023/02/18 07:51:27;;;;;;;0.60;0.60;;;;;;;15.01;93.18;99719.34;6296903;22;20206;-81
2023/02/18 07:53:54;;;;;;;0.77;0.70;;;;;;;14.97;93.90;99714.44;6296231;22;20258;-81
2023/02/18 07:56:22;;;;;;;1.80;0.70;;;;;;;14.93;93.54;99724.06;6296033;22;20285;-81
2023/02/18 07:58:48;;;;;;;0.60;0.50;;;;;;;14.95;93.65;99721.94;6268750;22;20235;-81
2023/02/18 08:01:15;;;;;;;0.97;0.60;;;;;;;15.22;92.83;99754.47;6297292;22;20213;-81
2023/02/18 08:03:42;;;;;;;0.80;0.60;;;;;;;15.05;93.34;99734.78;6270797;22;20668;-82
2023/02/18 08:06:21;;;;;;;1.03;0.70;;;;;;;15.19;93.16;99719.91;6296738;22;20210;-81
2023/02/18 08:08:48;;;;;;;0.87;0.57;;;;;;;15.30;92.85;99731.66;6272597;22;20227;-81
2023/02/18 08:11:18;;;;;;;0.70;0.63;;;;;;;15.26;92.68;99735.91;6243523;23;20614;-81
2023/02/18 08:13:47;;;;;;;1.47;0.67;;;;;;;15.49;92.06;99718.72;6292156;22;20214;-81
2023/02/18 08:16:16;;;;;;;0.50;0.50;;;;;;;15.58;91.52;99733.44;6299088;22;20226;-81
2023/02/18 08:18:43;;;;;;;0.50;0.50;;;;;;;15.43;91.51;99728.59;6271963;22;20231;-81
2023/02/18 08:21:09;;;;;;;0.60;0.60;;;;;;;15.44;91.82;99738.34;6297324;22;20211;-81
2023/02/18 08:23:36;;;;;;;2.03;0.80;;;;;;;15.65;91.16;99724.06;6298569;22;20544;-82
2023/02/18 08:26:03;;;;;;;1.53;0.60;;;;;;;15.68;90.67;99728.16;6300992;22;20214;-81
2023/02/18 08:28:29;;;;;;;1.30;0.70;;;;;;;15.72;90.47;99727.41;6259403;22;20213;-80
2023/02/18 08:30:57;;;;;;;0.93;0.70;;;;;;;15.56;90.68;99730.16;6282140;22;20701;-80
2023/02/18 08:33:24;;;;;;;1.90;0.90;;;;;;;15.66;90.66;99727.59;6289379;22;20237;-79
2023/02/18 08:35:52;;;;;;;1.30;0.67;;;;;;;15.64;90.25;99724.31;6285945;22;20210;-78
2023/02/18 08:38:19;;;;;;;0.70;0.60;;;;;;;15.67;90.20;99740.03;6283920;22;20263;-78
2023/02/18 08:40:46;;;;;;;0.67;0.67;;;;;;;15.72;90.03;99737.41;6288375;22;20211;-79
2023/02/18 08:43:14;;;;;;;2.53;0.80;;;;;;;15.64;90.30;99729.72;6318432;22;20236;-78
2023/02/18 08:45:48;;;;;;;0.80;0.70;;;;;;;15.60;90.43;99736.69;6333521;22;20205;-82
2023/02/18 09:00:27;;;;;;;1.30;0.80;;;;;;;15.98;88.84;99731.25;6272497;22;20205;-81
2023/02/18 09:02:55;;;;;;;0.93;0.60;;;;;;;16.22;88.21;99723.69;6295688;22;20249;-81
2023/02/18 09:05:34;;;;;;;0.43;0.40;;;;;;;16.43;88.25;99735.50;6291292;22;20214;-81
2023/02/18 09:14:18;;;;;;;1.10;0.60;;;;;;;16.72;86.83;99732.31;6288403;22;20210;-87
2023/02/18 10:27:56;;;;;;;0.40;0.30;;;;;;;16.72;83.40;99650.34;6284662;22;20210;-89
2023/02/18 11:12:50;;;;;;;2.27;0.50;;;;;;;17.82;78.19;99622.28;6301815;22;20210;-94
2023/02/18 11:15:23;;;;;;;0.30;0.30;;;;;;;18.03;77.18;99621.22;6229381;22;20660;-93
2023/02/18 11:17:53;;;;;;;0.30;0.30;;;;;;;18.23;76.55;99625.06;6229524;22;20204;-92
2023/02/18 11:20:34;;;;;;;0.30;0.30;;;;;;;18.56;76.25;99610.19;6279711;22;20215;-92
2023/02/18 11:23:07;;;;;;;2.20;0.40;;;;;;;18.69;75.44;99621.28;6279913;22;20286;-93
2023/02/18 11:25:36;;;;;;;0.57;0.30;;;;;;;18.54;75.00;99594.16;6280723;22;20219;-93
2023/02/18 11:28:34;;;;;;;0.40;0.40;;;;;;;18.74;74.47;99598.75;6256575;22;20204;-93
2023/02/18 11:31:01;;;;;;;2.00;0.30;;;;;;;18.69;74.57;99596.88;6256191;22;20237;-92
2023/02/18 11:33:34;;;;;;;0.43;0.43;;;;;;;18.67;74.56;99587.34;6282126;22;20222;-93
2023/02/18 11:36:18;;;;;;;0.20;0.20;;;;;;;18.68;73.74;99581.66;6255332;22;20286;-92
2023/02/18 11:38:48;;;;;;;0.30;0.30;;;;;;;18.57;74.09;99576.53;6255914;22;20207;-93
2023/02/18 11:41:19;;;;;;;0.50;0.30;;;;;;;18.58;74.51;99578.97;6231048;22;20218;-93
2023/02/18 11:43:49;;;;;;;6.97;1.40;;;;;;;18.51;74.35;99583.00;6256032;22;20207;-93
2023/02/18 11:46:19;;;;;;;0.30;0.30;;;;;;;18.45;73.98;99571.34;6255520;22;20211;-93
2023/02/18 11:48:46;;;;;;;0.77;0.30;;;;;;;18.56;72.97;99573.00;6231164;22;20286;-93
2023/02/18 11:51:36;;;;;;;0.93;0.30;;;;;;;18.85;72.81;99562.34;6256293;22;20210;-92
2023/02/18 11:54:16;;;;;;;0.27;0.27;;;;;;;19.01;72.01;99563.13;6237082;22;20212;-93
2023/02/18 11:56:55;;;;;;;1.20;0.40;;;;;;;19.14;71.46;99549.78;6231404;22;20651;-91
2023/02/18 11:59:22;;;;;;;1.00;0.30;;;;;;;19.10;70.64;99553.34;6256754;22;20203;-93
2023/02/18 12:01:57;;;;;;;0.70;0.40;;;;;;;19.11;70.00;99539.50;6256535;22;20204;-93
2023/02/18 12:04:28;;;;;;;0.40;0.40;;;;;;;19.22;69.92;99543.78;6256385;22;20281;-93
2023/02/18 12:07:30;;;;;;;0.40;0.40;;;;;;;19.15;69.20;99528.88;6225911;22;20258;-92
2023/02/18 12:10:00;;;;;;;0.30;0.30;;;;;;;19.06;68.63;99525.94;6218460;22;20282;-93
2023/02/18 12:12:32;;;;;;;0.50;0.50;;;;;;;19.01;69.07;99519.69;6189701;23;20233;-93
2023/02/18 12:14:59;;;;;;;0.90;0.30;;;;;;;19.40;69.00;99511.66;6166295;23;20209;-93
2023/02/18 12:17:31;;;;;;;0.43;0.30;;;;;;;19.55;68.39;99512.38;6190241;23;20260;-92
2023/02/18 12:20:14;;;;;;;0.97;0.30;;;;;;;19.38;68.27;99483.94;6191078;23;20228;-93
2023/02/18 12:22:59;;;;;;;0.50;0.50;;;;;;;19.14;68.29;99468.31;6190403;23;20209;-94
2023/02/18 12:25:45;;;;;;;0.40;0.37;;;;;;;19.59;67.16;99474.63;6165425;23;20210;-94
2023/02/18 12:28:32;;;;;;;1.00;0.50;;;;;;;19.73;66.46;99473.72;6190112;23;20217;-94
2023/02/18 12:31:24;;;;;;;0.97;0.50;;;;;;;20.15;66.28;99472.28;6176915;23;20228;-95
2023/02/18 12:34:27;;;;;;;0.40;0.40;;;;;;;19.67;66.30;99460.41;6196492;23;20263;-96
2023/02/18 12:37:31;;;;;;;2.50;0.40;;;;;;;19.71;65.85;99445.97;6196161;23;20225;-94
2023/02/18 12:40:10;;;;;;;0.60;0.57;;;;;;;20.32;65.18;99452.81;6232308;23;20205;-94
2023/02/18 12:42:48;;;;;;;0.50;0.50;;;;;;;20.21;66.05;99443.91;6194012;23;20203;-94
2023/02/18 12:45:37;;;;;;;1.00;0.50;;;;;;;20.30;64.76;99439.50;6216483;23;20213;-93
2023/02/18 12:48:37;;;;;;;0.50;0.50;;;;;;;20.17;65.66;99438.25;6189635;23;20210;-93
2023/02/18 12:51:10;;;;;;;0.53;0.50;;;;;;;19.95;64.32;99432.47;6215136;23;20209;-93
2023/02/18 12:53:37;;;;;;;0.40;0.40;;;;;;;19.96;64.96;99428.66;6165308;23;20225;-93
2023/02/18 12:56:23;;;;;;;0.60;0.40;;;;;;;20.01;64.25;99425.91;6214101;23;20210;-94
2023/02/18 12:59:11;;;;;;;1.07;0.50;;;;;;;19.90;64.13;99423.53;6190004;23;20215;-93
2023/02/18 13:01:58;;;;;;;1.67;0.47;;;;;;;19.91;64.43;99425.97;6189399;23;20276;-93
2023/02/18 13:04:57;;;;;;;0.70;0.50;;;;;;;19.87;64.24;99424.94;6164442;23;20198;-92
2023/02/18 13:07:42;;;;;;;0.47;0.40;;;;;;;19.76;63.01;99401.66;6213991;23;20215;-93
2023/02/18 13:10:27;;;;;;;0.40;0.40;;;;;;;19.94;62.59;99398.22;6188936;23;20280;-92
2023/02/18 13:13:10;;;;;;;0.50;0.50;;;;;;;20.13;62.99;99395.59;6219063;23;20210;-93
2023/02/18 13:15:59;;;;;;;0.53;0.50;;;;;;;20.29;62.42;99396.25;6244680;23;20241;-93
2023/02/18 13:19:02;;;;;;;0.40;0.40;;;;;;;20.41;60.91;99400.22;6218946;23;20537;-92
2023/02/18 13:21:30;;;;;;;0.53;0.53;;;;;;;20.96;60.37;99387.81;6217028;22;20580;-93
2023/02/18 13:24:09;;;;;;;0.40;0.40;;;;;;;20.92;60.43;99375.06;6219908;23;20227;-94
2023/02/18 13:26:36;;;;;;;0.53;0.50;;;;;;;20.56;61.30;99375.53;6219284;23;20287;-91
2023/02/18 13:29:21;;;;;;;1.27;0.40;;;;;;;20.81;59.89;99360.78;6219548;23;20281;-93
2023/02/18 13:32:01;;;;;;;0.50;0.50;;;;;;;20.98;59.74;99354.84;6244388;23;20626;-93
2023/02/18 13:34:33;;;;;;;0.50;0.40;;;;;;;20.86;59.46;99351.72;6219784;23;20255;-93
2023/02/18 13:37:17;;;;;;;0.30;0.30;;;;;;;20.86;59.92;99349.81;6218917;23;20209;-91
2023/02/18 13:39:53;;;;;;;0.40;0.40;;;;;;;20.68;59.57;99345.16;6219031;23;20215;-93
2023/02/18 13:42:27;;;;;;;0.40;0.40;;;;;;;20.63;60.31;99348.78;6244297;22;20214;-93
2023/02/18 13:44:53;;;;;;;0.50;0.40;;;;;;;20.53;59.52;99321.69;6245136;22;20207;-93
2023/02/18 13:47:35;;;;;;;0.53;0.53;;;;;;;20.47;59.78;99325.59;6246184;22;20208;-93
2023/02/18 13:50:20;;;;;;;0.30;0.30;;;;;;;20.25;59.25;99308.94;6243890;22;20210;-92
2023/02/18 13:52:52;;;;;;;0.50;0.43;;;;;;;20.39;59.49;99309.88;6269548;22;20215;-93
2023/02/18 13:55:26;;;;;;;0.40;0.40;;;;;;;20.39;59.36;99296.28;6245105;22;20208;-93
2023/02/18 13:57:54;;;;;;;0.70;0.57;;;;;;;20.34;59.39;99296.38;6219160;23;20208;-93
2023/02/18 14:00:23;;;;;;;0.60;0.40;;;;;;;19.95;59.82;99293.00;6244895;22;20212;-93
2023/02/18 14:02:58;;;;;;;0.50;0.50;;;;;;;19.87;59.87;99291.72;6244452;23;20213;-93
2023/02/18 14:05:38;;;;;;;0.60;0.50;;;;;;;20.02;60.26;99279.84;6219233;23;20656;-93
2023/02/18 14:08:11;;;;;;;0.40;0.40;;;;;;;19.88;60.78;99274.28;6218663;22;20213;-93
2023/02/18 14:10:39;;;;;;;1.90;0.70;;;;;;;19.96;61.01;99286.47;6221205;22;20249;-93
2023/02/18 14:13:40;;;;;;;1.07;0.40;;;;;;;19.98;60.58;99278.81;6199698;22;20221;-93
2023/02/18 14:16:08;;;;;;;0.40;0.40;;;;;;;19.96;60.34;99270.97;6191973;22;20209;-93
2023/02/18 14:18:37;;;;;;;0.83;0.50;;;;;;;19.73;60.27;99272.56;6224206;22;20210;-93
2023/02/18 14:21:19;;;;;;;0.40;0.40;;;;;;;19.65;60.57;99275.09;6249381;22;20213;-93
2023/02/18 14:23:58;;;;;;;0.40;0.40;;;;;;;19.71;60.22;99263.06;6224435;22;20215;-93
2023/02/18 14:26:29;;;;;;;0.40;0.40;;;;;;;19.61;61.20;99279.47;6248712;22;20201;-93
2023/02/18 14:29:10;;;;;;;0.60;0.40;;;;;;;19.60;61.99;99273.22;6199503;22;20204;-93
2023/02/18 14:31:44;;;;;;;0.33;0.33;;;;;;;19.54;61.62;99266.25;6224652;22;20212;-92
2023/02/18 14:34:13;;;;;;;0.33;0.33;;;;;;;19.43;61.96;99261.16;6224370;22;20276;-92
2023/02/18 14:36:55;;;;;;;0.47;0.40;;;;;;;19.56;61.68;99255.06;6275980;22;20203;-91
2023/02/18 14:39:43;;;;;;;1.27;0.40;;;;;;;19.40;61.96;99259.81;6249963;22;20212;-93
2023/02/18 14:42:16;;;;;;;0.40;0.40;;;;;;;19.24;62.75;99255.63;6248457;22;20283;-93
2023/02/18 14:45:08;;;;;;;0.40;0.40;;;;;;;19.15;62.01;99244.56;6249480;22;20201;-94
2023/02/18 14:47:56;;;;;;;0.60;0.40;;;;;;;19.04;62.56;99250.34;6274291;22;20216;-93
2023/02/18 14:50:23;;;;;;;1.17;0.40;;;;;;;18.81;63.19;99249.97;6248824;22;20223;-93
2023/02/18 14:52:56;;;;;;;0.60;0.50;;;;;;;18.54;63.94;99241.47;6223665;22;20230;-93
2023/02/18 14:55:29;;;;;;;0.47;0.47;;;;;;;18.59;63.85;99246.88;6224515;22;20269;-91
2023/02/18 14:58:05;;;;;;;0.70;0.50;;;;;;;18.51;63.64;99233.06;6199611;22;20204;-93
2023/02/18 15:00:35;;;;;;;0.40;0.40;;;;;;;18.37;64.00;99235.59;6200243;22;20585;-94
2023/02/18 15:03:02;;;;;;;1.27;0.60;;;;;;;18.24;64.66;99231.59;6251101;22;20279;-93
2023/02/18 15:05:31;;;;;;;1.03;0.50;;;;;;;18.34;64.80;99217.16;6250743;22;20200;-94
2023/02/18 15:08:03;;;;;;;0.43;0.40;;;;;;;18.52;64.42;99229.28;6200835;22;20686;-94
2023/02/18 15:10:39;;;;;;;1.50;0.40;;;;;;;18.57;64.27;99237.41;6225728;22;20204;-94
2023/02/18 15:13:36;;;;;;;1.63;0.50;;;;;;;18.54;64.84;99241.47;6226017;22;20203;-94
2023/02/18 15:16:07;;;;;;;1.23;0.40;;;;;;;18.53;64.85;99239.84;6249210;22;20216;-92
2023/02/18 15:18:50;;;;;;;1.10;0.50;;;;;;;18.25;64.77;99238.63;6251797;22;20212;-92